Terminal Aerodrome Forecast
Issued by NWS

Home | Current Version | Previous Version | Text Only | Print | Product List | Glossary On
Versions: 1 2 3 4 5 6 7 8 9 10 11 12
590
FTUS42 TJSJ 260540
TAFNCM
TAF
TNCM 260540Z 2606/2706 05007KT P6SM VCSH FEW025
     FM261500 12012KT P6SM SCT025
     FM270000 08006KT P6SM VCSH SCT030=

USA.gov is the U.S. government's official web portal to all federal, state and local government web resources and services.